South Aberdeen, Washington
Current Conditions -  °F | °C
As of 10:53 AM on Tuesday 27 Jan 2015 (Local Time) from KHQM Reporting Station
Overcast Overcast  
Wind Chill: 11°   Ceiling: 600
Heat Index: 11°   Visibility: 7mi
Dew Point: 11°   Wind: 7mph
Humidity: 97%   Direction: 250°WSW
Pressure: 30.09"   Gusts: NA
Location:  47.1445°N, 123.771°W
Report Text: KHQM 271853Z AUTO 25006KT 7SM OVC006 11/11 A3009 RMK AO2 SLP192 T01110106 $
Loading
Personal Weather Stations






























Interactive Weather Map New forecast layout! Learn more

10-Day Weather Forecast

Advertisements
Track Severe Weather on mobile